Taasinge Maersk — OUSX2 — position and weather

sailwx.info

Track history (hours):
 
Tides and Currents Weather Stations Pressure Air Temp Water Temp Dewpoint Dewpoint Depression Visibility Wind Speed Wind Dir Waves Ship Positions

Taasinge Maersk

Last reported at 2017-Apr-27 16:05 UTC. Time now 2017-Apr-30 07:03 UTC.
Position N 16°13' W 017°02'.

; draft 6.8 m.

Type: Cargo ship. MMSI: 220157000.

Date/timePositionNaut miles runAvg speedWind from/ knotsBaromVisibWave heightAir tempDewpointWater temp
2017-Apr-27 16:05N 16°13' W 017°02'1 8.2
2017-Apr-27 16:00N 16°12' W 017°03'4 8.3
2017-Apr-27 15:30N 16°09' W 017°04'4 8.2
2017-Apr-27 15:00N 16°05' W 017°06'44 8.1
2017-Apr-27 09:32N 15°25' W 017°25'10 8.1
2017-Apr-27 08:22N 15°16' W 017°29'121 3.4
2017-Apr-25 20:30N 13°27' W 016°34'0 0.0
2017-Apr-25 03:16N 13°27' W 016°34'0 0.0
2017-Apr-25 02:58N 13°27' W 016°34'0 0.0
2017-Apr-25 02:29N 13°27' W 016°34'0 0.0
2017-Apr-24 00:09N 13°27' W 016°34'0 0.0
2017-Apr-23 23:54N 13°27' W 016°34'0 0.0
2017-Apr-23 23:24N 13°27' W 016°34'0 0.0
2017-Apr-23 23:00N 13°27' W 016°34'0 0.0
2017-Apr-23 22:18N 13°27' W 016°34'0 0.0
2017-Apr-23 22:00N 13°27' W 016°34'0 0.0
2017-Apr-23 19:27N 13°27' W 016°34'  
2017-Apr-21 11:17N 13°29' W 016°34'6 3.4
2017-Apr-21 09:32N 13°34' W 016°38'0 5.5
2017-Apr-21 09:30N 13°34' W 016°38'16 3.6
2017-Apr-21 04:54N 13°33' W 016°55'5 5.2
2017-Apr-21 03:55N 13°37' W 016°58'6 5.6
2017-Apr-21 02:57N 13°41' W 017°01'3 5.6
2017-Apr-21 02:30N 13°43' W 017°03'3 5.6
2017-Apr-21 02:01N 13°45' W 017°05'3 5.5
2017-Apr-21 01:30N 13°47' W 017°07'3 5.4
2017-Apr-21 01:00N 13°49' W 017°09'3 5.2
2017-Apr-21 00:31N 13°50' W 017°11'5 5.1
2017-Apr-20 23:36N 13°53' W 017°14'1 5.1
2017-Apr-20 23:30N 13°54' W 017°15'3 5.5
2017-Apr-20 23:01N 13°56' W 017°16'3 5.7
2017-Apr-20 22:31N 13°59' W 017°18'4 7.3
2017-Apr-20 22:00N 14°02' W 017°18'5 8.8
2017-Apr-20 21:29N 14°07' W 017°18'10 9.0
2017-Apr-20 20:25N 14°15' W 017°23'15 8.7
2017-Apr-20 18:39N 14°28' W 017°32'1 8.3
2017-Apr-20 18:30N 14°29' W 017°33'5 8.3
2017-Apr-20 17:57N 14°33' W 017°35'4 8.3
2017-Apr-20 17:30N 14°36' W 017°37'6 8.0
2017-Apr-20 16:45N 14°41' W 017°40'48 8.6
2017-Apr-20 11:10N 15°27' W 017°24'2 9.3
2017-Apr-20 10:56N 15°29' W 017°23'10 9.2
2017-Apr-20 09:49N 15°38' W 017°18'6 9.2
2017-Apr-20 09:09N 15°44' W 017°16'64 8.6
2017-Apr-20 01:42N 16°42' W 016°49'  
Track history (hours):
 
Tides and Currents Weather Stations Pressure Air Temp Water Temp Dewpoint Dewpoint Depression Visibility Wind Speed Wind Dir Waves Ship Positions

Taasinge Maersk

Last reported at 2017-Apr-27 16:05 UTC. Time now 2017-Apr-30 07:03 UTC.
Position N 16°13' W 017°02'.

; draft 6.8 m.

Type: Cargo ship. MMSI: 220157000.

Date/timePositionNaut miles runAvg speedWind from/ knotsBaromVisibWave heightAir tempDewpointWater temp
2017-Apr-27 16:05N 16°13' W 017°02'1 8.2
2017-Apr-27 16:00N 16°12' W 017°03'4 8.3
2017-Apr-27 15:30N 16°09' W 017°04'4 8.2
2017-Apr-27 15:00N 16°05' W 017°06'44 8.1
2017-Apr-27 09:32N 15°25' W 017°25'10 8.1
2017-Apr-27 08:22N 15°16' W 017°29'121 3.4
2017-Apr-25 20:30N 13°27' W 016°34'0 0.0
2017-Apr-25 03:16N 13°27' W 016°34'0 0.0
2017-Apr-25 02:58N 13°27' W 016°34'0 0.0
2017-Apr-25 02:29N 13°27' W 016°34'0 0.0
2017-Apr-24 00:09N 13°27' W 016°34'0 0.0
2017-Apr-23 23:54N 13°27' W 016°34'0 0.0
2017-Apr-23 23:24N 13°27' W 016°34'0 0.0
2017-Apr-23 23:00N 13°27' W 016°34'0 0.0
2017-Apr-23 22:18N 13°27' W 016°34'0 0.0
2017-Apr-23 22:00N 13°27' W 016°34'0 0.0
2017-Apr-23 19:27N 13°27' W 016°34'  
2017-Apr-21 11:17N 13°29' W 016°34'6 3.4
2017-Apr-21 09:32N 13°34' W 016°38'0 5.5
2017-Apr-21 09:30N 13°34' W 016°38'16 3.6
2017-Apr-21 04:54N 13°33' W 016°55'5 5.2
2017-Apr-21 03:55N 13°37' W 016°58'6 5.6
2017-Apr-21 02:57N 13°41' W 017°01'3 5.6
2017-Apr-21 02:30N 13°43' W 017°03'3 5.6
2017-Apr-21 02:01N 13°45' W 017°05'3 5.5
2017-Apr-21 01:30N 13°47' W 017°07'3 5.4
2017-Apr-21 01:00N 13°49' W 017°09'3 5.2
2017-Apr-21 00:31N 13°50' W 017°11'5 5.1
2017-Apr-20 23:36N 13°53' W 017°14'1 5.1
2017-Apr-20 23:30N 13°54' W 017°15'3 5.5
2017-Apr-20 23:01N 13°56' W 017°16'3 5.7
2017-Apr-20 22:31N 13°59' W 017°18'4 7.3
2017-Apr-20 22:00N 14°02' W 017°18'5 8.8
2017-Apr-20 21:29N 14°07' W 017°18'10 9.0
2017-Apr-20 20:25N 14°15' W 017°23'15 8.7
2017-Apr-20 18:39N 14°28' W 017°32'1 8.3
2017-Apr-20 18:30N 14°29' W 017°33'5 8.3
2017-Apr-20 17:57N 14°33' W 017°35'4 8.3
2017-Apr-20 17:30N 14°36' W 017°37'6 8.0
2017-Apr-20 16:45N 14°41' W 017°40'48 8.6
2017-Apr-20 11:10N 15°27' W 017°24'2 9.3
2017-Apr-20 10:56N 15°29' W 017°23'10 9.2
2017-Apr-20 09:49N 15°38' W 017°18'6 9.2
2017-Apr-20 09:09N 15°44' W 017°16'64 8.6
2017-Apr-20 01:42N 16°42' W 016°49'  

Dump ship's entire track history